Nord Imagination — 3FIA8 — position and weather

sailwx.info

Track history (hours):
 
Tides and Currents Weather Stations Pressure Air Temp Water Temp Dewpoint Dewpoint Depression Visibility Wind Speed Wind Dir Waves Ship Positions

Nord Imagination

Last reported at 2016-Sep-29 16:33 UTC. Time now 2016-Sep-29 17:03 UTC.
Position N 38°03' W 122°16'.

Length 179 m; draft 7.5 m.

Type: Ship (hazmat cat D). MMSI: 354828000.

Date/timePositionNaut miles runAvg speedWind from/ knotsBaromVisibWave heightAir tempDewpointWater temp
2016-Sep-29 16:33N 38°03' W 122°16'0 0.0
2016-Sep-29 15:33N 38°03' W 122°16'0 0.0
2016-Sep-29 14:33N 38°03' W 122°16'0 0.0
2016-Sep-29 13:21N 38°03' W 122°16'0 0.0
2016-Sep-29 08:33N 38°03' W 122°16'30 3.8
2016-Sep-29 00:33N 37°43' W 122°44'24 7.9
2016-Sep-28 21:33N 37°30' W 123°09'4 2.2
2016-Sep-28 19:34N 37°25' W 123°08'10 3.3
2016-Sep-28 16:33N 37°18' W 122°59'4 3.8
2016-Sep-28 15:33N 37°15' W 122°57'10 3.4
2016-Sep-28 12:33N 37°13' W 123°09'6 1.6
2016-Sep-28 08:34N 37°14' W 123°17'17 3.5
2016-Sep-28 03:34N 37°15' W 122°55'3 3.2
2016-Sep-28 02:33N 37°15' W 122°51'3 3.4
2016-Sep-28 01:34N 37°15' W 122°47'5 2.5
2016-Sep-27 23:34N 37°17' W 122°41'12 3.1
2016-Sep-27 19:34N 37°05' W 122°35'18 3.5
2016-Sep-27 14:33N 36°48' W 122°30'4 4.3
2016-Sep-27 13:34N 36°44' W 122°30'11 3.6
2016-Sep-27 10:34N 36°46' W 122°43'13 1.3
2016-Sep-27 00:34N 36°54' W 122°30'4110.2
2016-Sep-26 20:34N 36°16' W 122°12'21612.0
2016-Sep-26 02:33N 33°53' W 118°53'1312.7
2016-Sep-26 01:33N 33°47' W 118°39'1313.1
2016-Sep-26 00:33N 33°41' W 118°26'11 3.6
2016-Sep-25 21:32N 33°44' W 118°13'0 0.0
2016-Sep-25 17:26N 33°44' W 118°13'0 0.1
2016-Sep-25 16:32N 33°44' W 118°13'0 0.1
2016-Sep-25 15:32N 33°44' W 118°13'0 0.1
2016-Sep-25 14:26N 33°44' W 118°13'0 0.0
2016-Sep-25 11:32N 33°44' W 118°13'0 0.0
2016-Sep-25 10:32N 33°44' W 118°13'0 0.0
2016-Sep-25 09:32N 33°44' W 118°13'0 0.0
2016-Sep-25 07:32N 33°44' W 118°13'0 0.0
2016-Sep-25 04:32N 33°44' W 118°13'6 1.4
2016-Sep-25 00:34N 33°39' W 118°10'15 7.6
2016-Sep-24 22:34N 33°24' W 118°05'7 6.7
2016-Sep-24 21:34N 33°18' W 118°02'10 4.9
2016-Sep-24 19:34N 33°11' W 117°54'1 0.9
2016-Sep-24 18:33N 33°11' W 117°55'1 0.8
2016-Sep-24 17:34N 33°10' W 117°56'2 1.6
2016-Sep-24 16:34N 33°09' W 117°56'13 6.3
2016-Sep-24 14:34N 32°57' W 117°51'2412.0
2016-Sep-24 12:34N 32°35' W 117°38'2512.7
2016-Sep-24 10:33N 32°11' W 117°31'1312.6
2016-Sep-24 09:34N 31°58' W 117°28'45 7.5
2016-Sep-24 03:34N 31°14' W 117°17'2 2.4
2016-Sep-24 02:34N 31°12' W 117°16'1 0.3
2016-Sep-24 00:25N 31°11' W 117°16'46 5.1
2016-Sep-23 15:17N 31°51' W 117°45'4 2.0
2016-Sep-23 13:28N 31°52' W 117°49'25 3.5
2016-Sep-23 06:18N 31°27' W 117°42'8 2.5
2016-Sep-23 03:14N 31°20' W 117°40'5 2.7
2016-Sep-23 01:27N 31°15' W 117°39'2 1.6
2016-Sep-23 00:12N 31°13' W 117°39'12 3.2
2016-Sep-22 20:33N 31°20' W 117°50'  
2016-Sep-20 02:27N 31°43' W 117°47'8 2.9
2016-Sep-19 23:34N 31°37' W 117°55'14 3.4
2016-Sep-19 19:33N 31°27' W 118°05'6 5.6
2016-Sep-19 18:31N 31°23' W 118°09'11 5.5
2016-Sep-19 16:34N 31°15' W 118°18'  
Track history (hours):
 
Tides and Currents Weather Stations Pressure Air Temp Water Temp Dewpoint Dewpoint Depression Visibility Wind Speed Wind Dir Waves Ship Positions

Nord Imagination

Last reported at 2016-Sep-29 16:33 UTC. Time now 2016-Sep-29 17:03 UTC.
Position N 38°03' W 122°16'.

Length 179 m; draft 7.5 m.

Type: Ship (hazmat cat D). MMSI: 354828000.

Date/timePositionNaut miles runAvg speedWind from/ knotsBaromVisibWave heightAir tempDewpointWater temp
2016-Sep-29 16:33N 38°03' W 122°16'0 0.0
2016-Sep-29 15:33N 38°03' W 122°16'0 0.0
2016-Sep-29 14:33N 38°03' W 122°16'0 0.0
2016-Sep-29 13:21N 38°03' W 122°16'0 0.0
2016-Sep-29 08:33N 38°03' W 122°16'30 3.8
2016-Sep-29 00:33N 37°43' W 122°44'24 7.9
2016-Sep-28 21:33N 37°30' W 123°09'4 2.2
2016-Sep-28 19:34N 37°25' W 123°08'10 3.3
2016-Sep-28 16:33N 37°18' W 122°59'4 3.8
2016-Sep-28 15:33N 37°15' W 122°57'10 3.4
2016-Sep-28 12:33N 37°13' W 123°09'6 1.6
2016-Sep-28 08:34N 37°14' W 123°17'17 3.5
2016-Sep-28 03:34N 37°15' W 122°55'3 3.2
2016-Sep-28 02:33N 37°15' W 122°51'3 3.4
2016-Sep-28 01:34N 37°15' W 122°47'5 2.5
2016-Sep-27 23:34N 37°17' W 122°41'12 3.1
2016-Sep-27 19:34N 37°05' W 122°35'18 3.5
2016-Sep-27 14:33N 36°48' W 122°30'4 4.3
2016-Sep-27 13:34N 36°44' W 122°30'11 3.6
2016-Sep-27 10:34N 36°46' W 122°43'13 1.3
2016-Sep-27 00:34N 36°54' W 122°30'4110.2
2016-Sep-26 20:34N 36°16' W 122°12'21612.0
2016-Sep-26 02:33N 33°53' W 118°53'1312.7
2016-Sep-26 01:33N 33°47' W 118°39'1313.1
2016-Sep-26 00:33N 33°41' W 118°26'11 3.6
2016-Sep-25 21:32N 33°44' W 118°13'0 0.0
2016-Sep-25 17:26N 33°44' W 118°13'0 0.1
2016-Sep-25 16:32N 33°44' W 118°13'0 0.1
2016-Sep-25 15:32N 33°44' W 118°13'0 0.1
2016-Sep-25 14:26N 33°44' W 118°13'0 0.0
2016-Sep-25 11:32N 33°44' W 118°13'0 0.0
2016-Sep-25 10:32N 33°44' W 118°13'0 0.0
2016-Sep-25 09:32N 33°44' W 118°13'0 0.0
2016-Sep-25 07:32N 33°44' W 118°13'0 0.0
2016-Sep-25 04:32N 33°44' W 118°13'6 1.4
2016-Sep-25 00:34N 33°39' W 118°10'15 7.6
2016-Sep-24 22:34N 33°24' W 118°05'7 6.7
2016-Sep-24 21:34N 33°18' W 118°02'10 4.9
2016-Sep-24 19:34N 33°11' W 117°54'1 0.9
2016-Sep-24 18:33N 33°11' W 117°55'1 0.8
2016-Sep-24 17:34N 33°10' W 117°56'2 1.6
2016-Sep-24 16:34N 33°09' W 117°56'13 6.3
2016-Sep-24 14:34N 32°57' W 117°51'2412.0
2016-Sep-24 12:34N 32°35' W 117°38'2512.7
2016-Sep-24 10:33N 32°11' W 117°31'1312.6
2016-Sep-24 09:34N 31°58' W 117°28'45 7.5
2016-Sep-24 03:34N 31°14' W 117°17'2 2.4
2016-Sep-24 02:34N 31°12' W 117°16'1 0.3
2016-Sep-24 00:25N 31°11' W 117°16'46 5.1
2016-Sep-23 15:17N 31°51' W 117°45'4 2.0
2016-Sep-23 13:28N 31°52' W 117°49'25 3.5
2016-Sep-23 06:18N 31°27' W 117°42'8 2.5
2016-Sep-23 03:14N 31°20' W 117°40'5 2.7
2016-Sep-23 01:27N 31°15' W 117°39'2 1.6
2016-Sep-23 00:12N 31°13' W 117°39'12 3.2
2016-Sep-22 20:33N 31°20' W 117°50'  
2016-Sep-20 02:27N 31°43' W 117°47'8 2.9
2016-Sep-19 23:34N 31°37' W 117°55'14 3.4
2016-Sep-19 19:33N 31°27' W 118°05'6 5.6
2016-Sep-19 18:31N 31°23' W 118°09'11 5.5
2016-Sep-19 16:34N 31°15' W 118°18'  

Dump ship's entire track history